Time;durP1;ratioP1;P1;durP2;ratioP2;P2;SDS_P1;SDS_P2;PMS_P1;PMS_P2;Temp;Humidity;BMP_temperature;BMP_pressure;BME280_temperature;BME280_humidity;BME280_pressure;Samples;Min_cycle;Max_cycle;Signal;HPM_P1;HPM_P2
2022/07/27 00:01:37;;;;;;;1.00;0.20;;;19.90;77.50;;;;;;5032975;28;20072;-75
2022/07/27 00:04:03;;;;;;;2.20;0.40;;;19.90;77.40;;;;;;5032818;28;20087;-75
2022/07/27 00:06:29;;;;;;;3.28;0.30;;;20.00;77.20;;;;;;5032683;28;20087;-75
2022/07/27 00:08:54;;;;;;;3.10;0.30;;;20.00;76.90;;;;;;5032764;28;20029;-75
2022/07/27 00:11:20;;;;;;;1.40;0.30;;;20.00;76.70;;;;;;5032740;28;20049;-75
2022/07/27 00:13:46;;;;;;;3.15;0.30;;;20.00;76.40;;;;;;5032878;28;20025;-75
2022/07/27 00:16:12;;;;;;;2.05;0.40;;;20.10;76.50;;;;;;5032634;28;20022;-75
2022/07/27 00:18:37;;;;;;;4.13;0.50;;;20.10;76.40;;;;;;5032408;28;20033;-75
2022/07/27 00:21:03;;;;;;;3.35;0.22;;;20.10;75.90;;;;;;5032645;28;20027;-75
2022/07/27 00:23:29;;;;;;;2.58;0.25;;;20.00;75.70;;;;;;5032723;28;20041;-76
2022/07/27 00:25:55;;;;;;;1.55;0.30;;;20.00;76.10;;;;;;5032600;28;20021;-75
2022/07/27 00:28:21;;;;;;;1.67;0.30;;;20.00;76.40;;;;;;5032541;28;20473;-76
2022/07/27 00:30:47;;;;;;;3.65;0.20;;;20.00;76.90;;;;;;5033295;28;20036;-76
2022/07/27 00:33:12;;;;;;;2.53;0.30;;;20.00;77.00;;;;;;5035950;28;20022;-75
2022/07/27 00:35:38;;;;;;;3.03;0.32;;;20.00;76.60;;;;;;5036297;28;20025;-75
2022/07/27 00:38:03;;;;;;;5.90;0.30;;;19.90;76.60;;;;;;5035933;28;20060;-75
2022/07/27 00:40:30;;;;;;;4.65;0.50;;;19.90;77.10;;;;;;5036130;28;20036;-76
2022/07/27 00:42:56;;;;;;;3.80;0.50;;;19.80;76.90;;;;;;5036103;28;20033;-75
2022/07/27 00:45:21;;;;;;;3.03;0.60;;;19.80;77.20;;;;;;5035534;28;20053;-75
2022/07/27 00:47:47;;;;;;;5.18;0.50;;;19.80;77.20;;;;;;5036092;28;20091;-75
2022/07/27 00:50:12;;;;;;;1.20;0.40;;;19.80;77.30;;;;;;5035995;28;20025;-75
2022/07/27 00:52:40;;;;;;;3.00;0.32;;;19.80;77.30;;;;;;5035642;28;20048;-76
2022/07/27 00:55:06;;;;;;;3.20;0.30;;;19.80;77.70;;;;;;5035899;28;20473;-75
2022/07/27 00:57:32;;;;;;;2.25;0.30;;;19.80;77.70;;;;;;5035628;28;20483;-76
2022/07/27 00:59:57;;;;;;;4.05;0.60;;;19.80;77.60;;;;;;5035298;28;20116;-75
2022/07/27 01:02:25;;;;;;;5.30;0.43;;;19.80;77.20;;;;;;5035546;28;20021;-75
2022/07/27 01:04:50;;;;;;;1.73;0.35;;;19.70;77.60;;;;;;5035420;28;20042;-75
2022/07/27 01:07:16;;;;;;;2.83;0.40;;;19.70;77.70;;;;;;5035225;28;20029;-75
2022/07/27 01:09:56;;;;;;;2.10;0.32;;;19.80;78.10;;;;;;5035529;28;20026;-75
2022/07/27 01:12:22;;;;;;;3.25;0.28;;;19.80;78.00;;;;;;5035548;28;20021;-75
2022/07/27 01:14:49;;;;;;;3.70;0.40;;;19.80;77.60;;;;;;5035478;28;20029;-75
2022/07/27 01:17:16;;;;;;;3.50;0.88;;;19.60;77.20;;;;;;5035259;28;20354;-75
2022/07/27 01:19:42;;;;;;;5.03;0.38;;;19.60;77.50;;;;;;5035273;28;20037;-75
2022/07/27 01:22:08;;;;;;;4.70;0.43;;;19.60;77.80;;;;;;5035416;28;20025;-75
2022/07/27 01:24:34;;;;;;;3.10;0.40;;;19.60;78.10;;;;;;5035036;28;20040;-75
2022/07/27 01:27:02;;;;;;;1.92;0.60;;;19.60;78.20;;;;;;5035157;28;20041;-75
2022/07/27 01:29:28;;;;;;;3.30;0.45;;;19.50;78.00;;;;;;5035129;28;20421;-75
2022/07/27 01:31:54;;;;;;;5.15;0.88;;;19.50;77.90;;;;;;5034959;28;20132;-75
2022/07/27 01:34:20;;;;;;;4.18;0.70;;;19.20;78.30;;;;;;5035187;28;20035;-75
2022/07/27 01:36:46;;;;;;;4.50;0.40;;;19.10;78.80;;;;;;5035251;28;20093;-75
2022/07/27 01:39:12;;;;;;;3.70;0.88;;;19.10;78.90;;;;;;5034962;28;20033;-76
2022/07/27 01:41:38;;;;;;;3.67;0.32;;;19.10;79.00;;;;;;5034170;28;20092;-75
2022/07/27 01:44:04;;;;;;;3.60;0.40;;;19.10;79.20;;;;;;5034467;28;20049;-76
2022/07/27 01:46:29;;;;;;;3.63;0.50;;;19.10;79.30;;;;;;5034924;28;20026;-75
2022/07/27 01:48:55;;;;;;;4.10;0.50;;;19.10;79.30;;;;;;5034473;28;20025;-75
2022/07/27 01:51:21;;;;;;;2.45;0.57;;;19.10;79.40;;;;;;5034849;28;20028;-76
2022/07/27 01:53:46;;;;;;;3.45;0.30;;;19.10;79.10;;;;;;5034879;28;20028;-76
2022/07/27 01:56:13;;;;;;;4.72;0.40;;;19.10;79.20;;;;;;5034607;28;20465;-76
2022/07/27 01:58:39;;;;;;;2.45;0.28;;;19.10;79.30;;;;;;5034754;28;20049;-75
2022/07/27 02:01:06;;;;;;;6.30;0.50;;;19.10;79.60;;;;;;5034468;28;20025;-75
2022/07/27 02:03:32;;;;;;;3.55;0.50;;;19.10;79.70;;;;;;5034299;28;20477;-75
2022/07/27 02:05:59;;;;;;;4.38;0.40;;;19.10;79.60;;;;;;5034291;28;20053;-75
2022/07/27 02:08:25;;;;;;;5.63;0.30;;;19.10;79.40;;;;;;5034407;28;20025;-75
2022/07/27 02:13:34;;;;;;;3.03;0.50;;;19.20;79.70;;;;;;5034251;28;20079;-75
2022/07/27 02:16:00;;;;;;;5.75;0.38;;;19.30;80.20;;;;;;5034351;28;20104;-75
2022/07/27 02:18:26;;;;;;;2.88;0.30;;;19.30;80.10;;;;;;5034151;28;20032;-75
2022/07/27 02:20:52;;;;;;;4.78;0.20;;;19.40;79.50;;;;;;5034321;28;20021;-75
2022/07/27 02:23:17;;;;;;;3.67;0.28;;;19.30;78.90;;;;;;5033876;28;20117;-75
2022/07/27 02:25:43;;;;;;;3.15;0.22;;;19.30;78.90;;;;;;5033769;28;20108;-75
2022/07/27 02:28:09;;;;;;;1.85;0.22;;;19.20;79.00;;;;;;5033915;28;20389;-76
2022/07/27 02:30:35;;;;;;;3.67;0.20;;;19.20;79.10;;;;;;5034153;28;20041;-76
2022/07/27 02:33:01;;;;;;;2.63;0.20;;;19.20;78.90;;;;;;5034152;28;20033;-75
2022/07/27 02:35:26;;;;;;;1.67;0.20;;;19.20;79.00;;;;;;5033992;28;20562;-76
2022/07/27 02:37:52;;;;;;;2.75;0.22;;;19.30;79.00;;;;;;5033773;28;20032;-76
2022/07/27 02:40:18;;;;;;;1.45;0.13;;;19.20;78.70;;;;;;5033830;28;20370;-76
2022/07/27 02:42:45;;;;;;;2.25;0.30;;;19.20;79.30;;;;;;5033773;28;20045;-75
2022/07/27 02:45:10;;;;;;;2.40;0.30;;;19.30;79.30;;;;;;5033861;28;20054;-75
2022/07/27 02:47:38;;;;;;;1.48;0.20;;;19.30;79.20;;;;;;5033789;28;20115;-75
2022/07/27 02:50:05;;;;;;;2.10;0.20;;;19.20;79.20;;;;;;5033942;28;20025;-75
2022/07/27 02:52:31;;;;;;;2.53;0.28;;;19.10;79.00;;;;;;5033687;28;20366;-75
2022/07/27 02:54:57;;;;;;;3.33;0.35;;;19.00;79.30;;;;;;5032566;28;20469;-75
2022/07/27 02:57:22;;;;;;;5.55;0.40;;;18.90;79.50;;;;;;5033431;28;20036;-75
2022/07/27 02:59:48;;;;;;;6.95;0.30;;;18.80;79.90;;;;;;5033700;28;20116;-75
2022/07/27 03:02:14;;;;;;;2.92;0.30;;;18.70;80.10;;;;;;5033741;28;20036;-76
2022/07/27 03:04:39;;;;;;;4.22;0.40;;;18.60;80.30;;;;;;5033403;28;20477;-75
2022/07/27 03:07:05;;;;;;;2.85;0.30;;;18.60;80.60;;;;;;5033394;28;20021;-75
2022/07/27 03:09:31;;;;;;;5.30;0.52;;;18.60;80.80;;;;;;5033639;28;20021;-75
2022/07/27 03:11:56;;;;;;;5.00;0.40;;;18.40;80.90;;;;;;5033549;28;20028;-75
2022/07/27 03:14:22;;;;;;;2.75;0.32;;;18.30;81.60;;;;;;5033502;28;20469;-75
2022/07/27 03:16:47;;;;;;;1.90;0.30;;;18.30;81.90;;;;;;5033236;28;20123;-75
2022/07/27 03:19:13;;;;;;;2.38;0.20;;;18.50;81.80;;;;;;5033153;28;20025;-75
2022/07/27 03:21:38;;;;;;;5.10;0.40;;;18.60;82.00;;;;;;5033487;28;20028;-75
2022/07/27 03:24:04;;;;;;;2.85;0.40;;;18.70;81.50;;;;;;5033085;28;20037;-75
2022/07/27 03:26:32;;;;;;;1.80;0.30;;;18.70;81.20;;;;;;5033339;28;20100;-75
2022/07/27 03:28:58;;;;;;;2.90;0.45;;;18.70;81.20;;;;;;5033426;28;20037;-75
2022/07/27 03:31:23;;;;;;;2.05;0.20;;;18.70;81.30;;;;;;5033068;28;20021;-75
2022/07/27 03:33:49;;;;;;;4.50;0.40;;;18.80;81.40;;;;;;5033042;28;20034;-75
2022/07/27 03:36:14;;;;;;;2.15;0.30;;;18.80;80.80;;;;;;5033051;28;20072;-75
2022/07/27 03:38:40;;;;;;;3.70;0.40;;;18.80;81.50;;;;;;5032764;28;20037;-75
2022/07/27 03:41:06;;;;;;;4.43;0.50;;;18.70;81.00;;;;;;5033045;28;20465;-75
2022/07/27 03:43:32;;;;;;;4.43;0.55;;;18.60;80.90;;;;;;5033174;28;20037;-75
2022/07/27 03:45:58;;;;;;;1.58;0.40;;;18.50;81.20;;;;;;5033200;28;20056;-75
2022/07/27 03:48:23;;;;;;;2.55;0.32;;;18.40;81.60;;;;;;5032941;28;20496;-75
2022/07/27 03:50:49;;;;;;;3.05;0.40;;;18.40;81.70;;;;;;5033067;28;20152;-75
2022/07/27 03:53:16;;;;;;;1.92;0.38;;;18.40;81.80;;;;;;5032761;28;20381;-75
2022/07/27 03:55:42;;;;;;;2.28;0.28;;;18.40;81.80;;;;;;5032798;28;20476;-75
2022/07/27 03:58:08;;;;;;;3.00;0.50;;;18.40;82.00;;;;;;5033281;28;20022;-75
2022/07/27 04:00:33;;;;;;;2.80;0.40;;;18.50;82.10;;;;;;5032755;28;20362;-75
2022/07/27 04:02:59;;;;;;;2.40;0.30;;;18.50;81.90;;;;;;5032541;28;20021;-75
2022/07/27 04:05:24;;;;;;;3.70;0.30;;;18.40;82.30;;;;;;5034881;28;20421;-75
2022/07/27 04:07:50;;;;;;;3.60;0.40;;;18.50;82.20;;;;;;5036678;28;20032;-75
2022/07/27 04:10:17;;;;;;;2.50;0.30;;;18.60;82.00;;;;;;5036418;28;20030;-75
2022/07/27 04:12:42;;;;;;;2.17;0.28;;;18.60;82.00;;;;;;5036514;28;20032;-75
2022/07/27 04:15:08;;;;;;;1.63;0.30;;;18.70;82.30;;;;;;5036575;28;20022;-75
2022/07/27 04:17:34;;;;;;;2.67;0.40;;;18.70;82.20;;;;;;5036678;28;20018;-75
2022/07/27 04:20:00;;;;;;;3.55;0.20;;;18.80;82.00;;;;;;5036307;28;20053;-75
2022/07/27 04:22:26;;;;;;;5.35;0.30;;;18.80;82.00;;;;;;5036396;28;20026;-75
2022/07/27 04:24:51;;;;;;;1.95;0.20;;;18.80;81.60;;;;;;5036034;28;20143;-75
2022/07/27 04:27:17;;;;;;;3.05;0.22;;;18.80;81.80;;;;;;5036245;28;20072;-75
2022/07/27 04:29:42;;;;;;;4.63;0.40;;;18.90;81.80;;;;;;5036179;28;20507;-75
2022/07/27 04:32:08;;;;;;;1.95;0.35;;;18.90;81.50;;;;;;5036376;28;20021;-75
2022/07/27 04:34:34;;;;;;;2.10;0.32;;;18.90;81.40;;;;;;5036161;28;20377;-75
2022/07/27 04:37:00;;;;;;;1.73;0.30;;;18.90;81.10;;;;;;5036331;28;20029;-75
2022/07/27 04:39:25;;;;;;;4.57;0.40;;;18.90;81.10;;;;;;5035681;28;20017;-75
2022/07/27 04:41:51;;;;;;;6.70;0.75;;;18.90;81.20;;;;;;5036125;28;20083;-75
2022/07/27 04:44:17;;;;;;;2.30;0.30;;;19.00;81.10;;;;;;5035887;28;20401;-75
2022/07/27 04:46:42;;;;;;;2.58;0.30;;;19.00;81.20;;;;;;5035814;28;20075;-75
2022/07/27 04:49:08;;;;;;;1.00;0.20;;;19.00;81.10;;;;;;5035736;28;20048;-75
2022/07/27 04:51:34;;;;;;;1.50;0.30;;;19.00;81.20;;;;;;5035820;28;20023;-75
2022/07/27 04:54:00;;;;;;;2.05;0.20;;;19.00;81.10;;;;;;5035690;28;20022;-75
2022/07/27 04:56:26;;;;;;;3.42;0.40;;;19.00;81.10;;;;;;5035893;28;20412;-75
2022/07/27 04:58:51;;;;;;;1.52;0.20;;;19.10;81.10;;;;;;5035886;28;20036;-75
2022/07/27 05:01:17;;;;;;;4.32;0.35;;;19.10;81.10;;;;;;5035673;28;20025;-75
2022/07/27 05:03:43;;;;;;;3.08;0.63;;;19.10;80.70;;;;;;5035664;28;20120;-75
2022/07/27 05:06:08;;;;;;;2.42;0.40;;;18.80;80.10;;;;;;5035241;28;20067;-75
2022/07/27 05:08:34;;;;;;;2.38;0.30;;;18.50;81.20;;;;;;5035334;28;20028;-75
2022/07/27 05:11:00;;;;;;;1.85;0.40;;;18.30;82.20;;;;;;5035666;28;20025;-75
2022/07/27 05:13:26;;;;;;;3.17;0.40;;;18.10;82.80;;;;;;5035649;28;20018;-75
2022/07/27 05:15:52;;;;;;;2.67;0.50;;;18.00;83.50;;;;;;5035046;28;20025;-75
2022/07/27 05:18:17;;;;;;;2.20;0.50;;;18.00;84.00;;;;;;5034741;28;20021;-75
2022/07/27 05:20:43;;;;;;;3.50;0.60;;;18.10;84.00;;;;;;5035258;28;20100;-75
2022/07/27 05:23:09;;;;;;;3.05;0.90;;;17.90;84.10;;;;;;5035296;28;20424;-75
2022/07/27 05:25:35;;;;;;;1.75;0.30;;;17.80;84.60;;;;;;5035377;28;20379;-75
2022/07/27 05:28:01;;;;;;;2.78;0.30;;;17.80;85.80;;;;;;5034702;28;20026;-75
2022/07/27 05:30:27;;;;;;;2.10;0.50;;;18.00;85.70;;;;;;5034974;28;20480;-75
2022/07/27 05:32:52;;;;;;;2.00;0.40;;;18.10;85.10;;;;;;5034961;28;20056;-75
2022/07/27 05:35:19;;;;;;;3.13;0.45;;;18.20;85.20;;;;;;5034915;28;20562;-75
2022/07/27 05:37:45;;;;;;;2.10;0.40;;;18.30;84.90;;;;;;5034997;28;20018;-75
2022/07/27 05:40:11;;;;;;;2.60;0.55;;;18.30;84.70;;;;;;5034791;28;20112;-75
2022/07/27 05:42:37;;;;;;;3.35;0.40;;;18.20;85.00;;;;;;5034742;28;20109;-75
2022/07/27 05:45:03;;;;;;;3.85;0.50;;;18.30;85.30;;;;;;5034660;28;20141;-75
2022/07/27 05:47:29;;;;;;;3.28;0.50;;;18.30;85.30;;;;;;5035005;28;20093;-75
2022/07/27 05:49:54;;;;;;;1.98;0.40;;;18.40;85.10;;;;;;5034576;28;20495;-75
2022/07/27 05:52:20;;;;;;;2.70;0.50;;;18.50;85.00;;;;;;5034785;28;20110;-75
2022/07/27 05:54:46;;;;;;;2.42;0.50;;;18.40;85.00;;;;;;5034807;28;20026;-75
2022/07/27 05:57:14;;;;;;;3.67;0.70;;;18.20;85.60;;;;;;5016678;28;20021;-75
2022/07/27 05:59:39;;;;;;;1.58;0.30;;;18.10;86.20;;;;;;5034690;28;20030;-75
2022/07/27 06:02:05;;;;;;;2.65;0.40;;;18.20;86.40;;;;;;5034501;28;20377;-75
2022/07/27 06:04:31;;;;;;;1.42;0.20;;;18.30;86.30;;;;;;5034372;28;20041;-75
2022/07/27 06:09:40;;;;;;;1.42;0.30;;;18.40;86.20;;;;;;5034144;28;20136;-75
2022/07/27 06:12:07;;;;;;;2.75;0.52;;;18.40;86.30;;;;;;5034369;28;20056;-75
2022/07/27 06:14:32;;;;;;;1.70;0.20;;;18.30;86.80;;;;;;5034540;28;20104;-75
2022/07/27 06:16:58;;;;;;;2.80;0.30;;;18.10;87.50;;;;;;5033997;28;20452;-75
2022/07/27 06:19:23;;;;;;;5.70;0.30;;;18.10;87.70;;;;;;5033799;28;20112;-75
2022/07/27 06:21:50;;;;;;;1.27;0.13;;;18.20;87.80;;;;;;5034243;28;20025;-74
2022/07/27 06:24:16;;;;;;;4.68;0.20;;;18.30;87.60;;;;;;5033630;28;20034;-75
2022/07/27 06:26:42;;;;;;;1.70;0.20;;;18.30;87.20;;;;;;5033821;28;20033;-74
2022/07/27 06:29:08;;;;;;;2.00;0.30;;;18.20;87.50;;;;;;5033915;28;20030;-74
2022/07/27 06:31:34;;;;;;;1.52;0.28;;;18.10;87.70;;;;;;5033854;28;20104;-74
2022/07/27 06:34:02;;;;;;;1.00;0.20;;;18.10;87.60;;;;;;5033779;28;20052;-75
2022/07/27 06:36:28;;;;;;;1.90;0.30;;;18.00;88.60;;;;;;5033917;28;20057;-75
2022/07/27 06:38:53;;;;;;;1.17;0.15;;;18.00;88.80;;;;;;5033677;28;20095;-75
2022/07/27 06:41:22;;;;;;;2.58;0.40;;;18.10;88.20;;;;;;5033857;28;20474;-75
2022/07/27 06:43:48;;;;;;;3.75;0.32;;;18.20;87.40;;;;;;5033641;28;20048;-75
2022/07/27 06:46:14;;;;;;;2.50;0.28;;;18.10;86.80;;;;;;5033914;28;20042;-75
2022/07/27 06:48:40;;;;;;;1.65;0.45;;;18.20;87.60;;;;;;5033503;28;20025;-75
2022/07/27 06:51:06;;;;;;;1.55;0.20;;;18.10;86.90;;;;;;5033674;28;20021;-75
2022/07/27 06:53:32;;;;;;;4.00;0.73;;;18.10;87.40;;;;;;5033772;28;20477;-75
2022/07/27 06:56:02;;;;;;;1.13;0.20;;;18.10;87.50;;;;;;5033173;28;20635;-75
2022/07/27 06:58:36;;;;;;;2.67;0.40;;;18.10;87.60;;;;;;5033566;28;20041;-75
2022/07/27 07:01:02;;;;;;;2.20;0.20;;;18.10;87.60;;;;;;5033593;28;20100;-75
2022/07/27 07:03:28;;;;;;;1.88;0.10;;;18.20;87.70;;;;;;5033273;28;20508;-75
2022/07/27 07:05:54;;;;;;;1.83;0.20;;;18.30;87.30;;;;;;5033260;28;20464;-75
2022/07/27 07:08:21;;;;;;;0.60;0.20;;;18.40;86.40;;;;;;5033271;28;20048;-75
2022/07/27 07:10:48;;;;;;;8.38;0.70;;;18.60;86.10;;;;;;5033509;28;20037;-75
2022/07/27 07:13:14;;;;;;;11.18;0.65;;;18.40;85.40;;;;;;5033240;28;20105;-75
2022/07/27 07:15:41;;;;;;;5.90;0.82;;;18.20;85.90;;;;;;5033464;28;20021;-75
2022/07/27 07:18:07;;;;;;;2.00;0.20;;;18.20;86.00;;;;;;5033445;28;20022;-75
2022/07/27 07:20:34;;;;;;;7.30;0.40;;;18.40;85.50;;;;;;5032875;28;20064;-75
2022/07/27 07:23:00;;;;;;;7.30;0.73;;;18.60;84.90;;;;;;5033251;28;20049;-74
2022/07/27 07:25:26;;;;;;;18.17;0.80;;;18.70;84.40;;;;;;5033153;28;20059;-75
2022/07/27 07:27:53;;;;;;;6.60;0.40;;;18.90;84.30;;;;;;5032882;28;20473;-74
2022/07/27 07:30:19;;;;;;;3.92;0.30;;;19.00;84.40;;;;;;5032801;28;20076;-75
2022/07/27 07:32:48;;;;;;;3.03;0.20;;;19.10;84.40;;;;;;5033183;28;20021;-75
2022/07/27 07:35:14;;;;;;;5.75;0.30;;;19.40;83.20;;;;;;5033249;28;20022;-74
2022/07/27 07:37:39;;;;;;;7.85;0.77;;;19.60;82.10;;;;;;5033077;28;20057;-74
2022/07/27 07:40:07;;;;;;;11.80;0.60;;;19.50;82.50;;;;;;5034265;28;20064;-74
2022/07/27 07:42:47;;;;;;;3.97;0.30;;;19.40;82.90;;;;;;5037195;28;20029;-74
2022/07/27 07:45:14;;;;;;;2.92;0.40;;;19.40;82.50;;;;;;5036714;28;20049;-75
2022/07/27 07:47:40;;;;;;;4.95;0.20;;;19.40;82.50;;;;;;5037226;28;20033;-75
2022/07/27 07:50:06;;;;;;;6.88;0.50;;;19.40;81.80;;;;;;5037043;28;20025;-74
2022/07/27 07:52:34;;;;;;;3.40;0.30;;;19.40;81.10;;;;;;5036705;28;20018;-75
2022/07/27 07:54:59;;;;;;;3.75;0.30;;;19.60;80.00;;;;;;5036635;28;20433;-75
2022/07/27 07:57:25;;;;;;;4.68;0.30;;;19.80;80.10;;;;;;5036801;28;20037;-75
2022/07/27 07:59:50;;;;;;;2.88;0.50;;;19.90;80.70;;;;;;5036433;28;20025;-75
2022/07/27 08:02:16;;;;;;;4.82;0.40;;;20.10;80.20;;;;;;5036745;28;20025;-75
2022/07/27 08:04:42;;;;;;;4.13;0.40;;;20.10;78.50;;;;;;5036304;28;20523;-75
2022/07/27 08:07:07;;;;;;;3.88;0.40;;;20.00;77.60;;;;;;5036638;28;20025;-75
2022/07/27 08:09:33;;;;;;;5.60;0.35;;;19.70;78.20;;;;;;5036397;28;20032;-75
2022/07/27 08:11:58;;;;;;;1.80;0.30;;;19.50;76.50;;;;;;5036468;28;20028;-75
2022/07/27 08:14:25;;;;;;;1.63;0.30;;;19.20;78.50;;;;;;5036410;28;20108;-75
2022/07/27 08:16:51;;;;;;;1.83;0.40;;;19.40;79.30;;;;;;5036259;28;20029;-75
2022/07/27 08:19:17;;;;;;;5.28;0.60;;;19.70;77.90;;;;;;5036518;28;20060;-75
2022/07/27 08:21:43;;;;;;;2.90;0.30;;;19.80;78.20;;;;;;5035931;28;20434;-75
2022/07/27 08:24:09;;;;;;;5.63;0.50;;;19.90;78.30;;;;;;5036086;28;20116;-75
2022/07/27 08:26:35;;;;;;;2.80;0.40;;;20.00;76.60;;;;;;5035935;28;20035;-75
2022/07/27 08:29:00;;;;;;;4.35;0.32;;;20.00;76.50;;;;;;5036336;28;20029;-75
2022/07/27 08:31:26;;;;;;;2.65;0.30;;;19.90;75.80;;;;;;5036021;28;20032;-75
2022/07/27 08:33:51;;;;;;;4.78;0.55;;;20.00;76.60;;;;;;5036183;28;20025;-75
2022/07/27 08:36:17;;;;;;;2.63;0.40;;;20.10;75.40;;;;;;5036302;28;20025;-75
2022/07/27 08:38:43;;;;;;;3.88;0.45;;;19.90;74.40;;;;;;5036458;28;20095;-75
2022/07/27 08:41:11;;;;;;;2.25;0.20;;;19.90;74.80;;;;;;5035812;28;20022;-75
2022/07/27 08:43:40;;;;;;;3.67;0.40;;;20.00;75.30;;;;;;5035764;28;20064;-75
2022/07/27 08:46:09;;;;;;;2.80;0.40;;;20.20;74.40;;;;;;5036015;28;20061;-75
2022/07/27 08:48:38;;;;;;;5.00;0.40;;;20.50;73.20;;;;;;5035992;28;20091;-75
2022/07/27 08:51:06;;;;;;;4.10;0.20;;;20.80;73.50;;;;;;5034949;28;20083;-75
2022/07/27 08:53:32;;;;;;;2.53;0.20;;;20.80;72.40;;;;;;5035559;28;20036;-75
2022/07/27 08:55:58;;;;;;;6.88;0.55;;;20.80;72.00;;;;;;5035618;28;20071;-75
2022/07/27 08:58:24;;;;;;;3.58;0.50;;;20.90;71.50;;;;;;5035744;28;20108;-74
2022/07/27 09:00:50;;;;;;;3.47;0.32;;;20.80;71.50;;;;;;5035638;28;20026;-75
2022/07/27 09:03:18;;;;;;;4.82;0.45;;;20.80;69.70;;;;;;5035720;28;20543;-75
2022/07/27 09:05:46;;;;;;;4.95;0.40;;;20.70;70.30;;;;;;5035215;28;20040;-74
2022/07/27 09:08:21;;;;;;;3.42;0.63;;;20.80;72.00;;;;;;5035558;28;20026;-76
2022/07/27 09:10:47;;;;;;;4.47;0.50;;;20.80;70.30;;;;;;5035610;28;20061;-76
2022/07/27 09:13:21;;;;;;;6.22;0.40;;;21.00;69.20;;;;;;5035126;28;20060;-76
2022/07/27 09:15:50;;;;;;;3.72;0.20;;;21.10;69.80;;;;;;5017455;28;20032;-76
2022/07/27 09:18:21;;;;;;;5.07;0.38;;;21.30;69.50;;;;;;5035262;28;20384;-73
2022/07/27 09:21:12;;;;;;;4.05;0.30;;;21.50;69.00;;;;;;5034845;28;20076;-74
2022/07/27 09:23:40;;;;;;;3.50;0.47;;;21.60;66.50;;;;;;5034998;28;20029;-74
2022/07/27 09:26:18;;;;;;;3.15;0.30;;;21.50;66.00;;;;;;5035078;28;20377;-74
2022/07/27 09:28:45;;;;;;;1.67;0.30;;;21.50;67.10;;;;;;5034905;28;20022;-74
2022/07/27 09:31:13;;;;;;;2.63;0.20;;;21.50;67.30;;;;;;5035007;28;20034;-74
2022/07/27 09:33:47;;;;;;;3.28;0.47;;;21.50;66.30;;;;;;5034930;28;20027;-74
2022/07/27 09:36:14;;;;;;;2.60;0.40;;;21.40;65.60;;;;;;5033913;28;20040;-74
2022/07/27 09:39:02;;;;;;;2.38;0.20;;;21.10;67.00;;;;;;5034625;28;20112;-75
2022/07/27 09:41:42;;;;;;;3.50;0.30;;;21.10;67.60;;;;;;5034930;28;20072;-74
2022/07/27 09:44:08;;;;;;;2.00;0.20;;;21.20;66.80;;;;;;5034563;28;20493;-75
2022/07/27 09:46:36;;;;;;;1.08;0.20;;;21.20;65.10;;;;;;5034808;28;20060;-75
2022/07/27 09:49:03;;;;;;;2.45;0.28;;;21.20;65.50;;;;;;5034696;28;20037;-76
2022/07/27 09:51:32;;;;;;;2.33;0.10;;;21.20;65.00;;;;;;5034315;28;20083;-76
2022/07/27 09:54:06;;;;;;;2.15;0.30;;;21.10;65.70;;;;;;5034509;28;20040;-75
2022/07/27 09:56:32;;;;;;;3.70;0.20;;;21.20;65.70;;;;;;5034802;28;20071;-76
2022/07/27 09:59:02;;;;;;;3.78;0.38;;;21.20;66.10;;;;;;5034505;28;20025;-75
2022/07/27 10:01:31;;;;;;;5.97;0.35;;;21.20;66.50;;;;;;5034411;28;20030;-75
2022/07/27 10:04:01;;;;;;;2.60;0.20;;;21.20;66.60;;;;;;5033346;28;20033;-75
2022/07/27 10:06:27;;;;;;;2.97;0.50;;;21.20;66.50;;;;;;5034342;28;20461;-75
2022/07/27 10:08:55;;;;;;;2.80;0.30;;;21.20;66.10;;;;;;5034334;28;20040;-75
2022/07/27 10:11:22;;;;;;;3.58;0.30;;;21.10;65.80;;;;;;5034493;28;20022;-75
2022/07/27 10:13:49;;;;;;;3.08;0.40;;;20.90;66.20;;;;;;5034014;28;20029;-75
2022/07/27 10:16:21;;;;;;;2.10;0.30;;;20.90;67.50;;;;;;5034347;28;20021;-75
2022/07/27 10:19:02;;;;;;;4.18;0.30;;;20.80;67.60;;;;;;5034127;28;20108;-75
2022/07/27 10:21:34;;;;;;;2.92;0.30;;;20.80;66.70;;;;;;5034017;28;20534;-75
2022/07/27 10:24:03;;;;;;;2.90;0.20;;;20.80;65.10;;;;;;5033915;28;20045;-76
2022/07/27 10:26:32;;;;;;;4.50;0.88;;;20.80;63.70;;;;;;5033817;28;20541;-75
2022/07/27 10:29:13;;;;;;;2.47;0.20;;;20.90;64.10;;;;;;5033831;28;20070;-75
2022/07/27 10:31:42;;;;;;;1.38;0.13;;;20.90;64.50;;;;;;5034088;28;20025;-76
2022/07/27 10:34:11;;;;;;;3.28;0.65;;;21.00;64.10;;;;;;5033866;28;20038;-75
2022/07/27 10:36:46;;;;;;;1.80;0.25;;;21.00;62.70;;;;;;5034101;28;20022;-75
2022/07/27 10:39:26;;;;;;;3.50;0.50;;;21.00;63.00;;;;;;5034072;28;20025;-75
2022/07/27 10:41:51;;;;;;;2.13;0.32;;;21.00;64.10;;;;;;5033898;28;20365;-74
2022/07/27 10:44:20;;;;;;;3.65;0.40;;;20.90;65.10;;;;;;5033890;28;20057;-76
2022/07/27 10:46:53;;;;;;;2.50;0.40;;;20.90;65.20;;;;;;5033750;28;20419;-75
2022/07/27 10:49:26;;;;;;;3.13;0.38;;;21.00;64.80;;;;;;5033694;28;20045;-76
2022/07/27 10:51:52;;;;;;;3.35;0.30;;;21.20;65.60;;;;;;5033461;28;20036;-76
2022/07/27 10:54:26;;;;;;;3.05;0.32;;;21.50;65.30;;;;;;5033374;28;20020;-76
2022/07/27 10:56:57;;;;;;;3.28;0.52;;;21.70;66.30;;;;;;5033545;28;20029;-76
2022/07/27 10:59:42;;;;;;;2.88;0.30;;;22.00;65.20;;;;;;5033520;28;20026;-76
2022/07/27 11:02:10;;;;;;;2.53;0.40;;;21.80;64.10;;;;;;5033639;28;20028;-75
2022/07/27 11:04:50;;;;;;;1.58;0.15;;;21.90;66.10;;;;;;5033270;28;20396;-75
2022/07/27 11:07:21;;;;;;;2.30;0.20;;;22.00;64.50;;;;;;5032940;28;20441;-76
2022/07/27 11:09:49;;;;;;;3.05;0.30;;;22.40;64.80;;;;;;5033650;28;20075;-76
2022/07/27 11:12:15;;;;;;;3.65;0.30;;;22.70;64.00;;;;;;5033189;28;20053;-76
2022/07/27 11:14:52;;;;;;;4.30;0.30;;;22.90;60.90;;;;;;5032519;28;20025;-76
2022/07/27 11:17:22;;;;;;;2.95;0.30;;;23.00;61.90;;;;;;5033181;28;20397;-76
2022/07/27 11:20:06;;;;;;;1.70;0.30;;;23.20;62.30;;;;;;5032942;28;20028;-76
2022/07/27 11:22:31;;;;;;;3.67;0.50;;;23.30;58.20;;;;;;5033245;28;20029;-75
2022/07/27 11:24:58;;;;;;;2.22;0.30;;;23.10;58.90;;;;;;5032832;28;20084;-75
2022/07/27 11:27:24;;;;;;;3.85;0.40;;;22.70;59.50;;;;;;5033402;28;20029;-75
2022/07/27 11:29:50;;;;;;;2.20;0.30;;;22.40;59.40;;;;;;5032687;28;20041;-75
2022/07/27 11:32:19;;;;;;;2.25;0.30;;;22.10;60.40;;;;;;5033020;28;20030;-75
2022/07/27 11:34:45;;;;;;;3.45;0.20;;;22.10;59.90;;;;;;5032770;28;20022;-75
2022/07/27 11:37:21;;;;;;;2.08;0.20;;;22.00;60.30;;;;;;5032924;28;20121;-75
2022/07/27 11:39:47;;;;;;;4.45;0.30;;;22.00;59.40;;;;;;5032930;28;20025;-75
2022/07/27 11:42:14;;;;;;;2.30;0.20;;;22.00;60.70;;;;;;5032755;28;20018;-75
2022/07/27 11:44:45;;;;;;;1.75;0.40;;;22.00;59.80;;;;;;5032680;28;20062;-75
2022/07/27 11:47:16;;;;;;;3.78;0.35;;;21.80;59.80;;;;;;5033207;28;20025;-75
2022/07/27 11:49:41;;;;;;;2.53;0.40;;;21.80;60.00;;;;;;5032840;28;20076;-75
2022/07/27 11:52:08;;;;;;;3.70;0.20;;;21.90;60.20;;;;;;5032636;28;20021;-75
2022/07/27 11:54:36;;;;;;;3.58;0.40;;;21.90;59.00;;;;;;5032824;28;20462;-75
2022/07/27 11:57:04;;;;;;;1.70;0.35;;;22.00;58.90;;;;;;5032714;28;20033;-74
2022/07/27 11:59:32;;;;;;;2.28;0.20;;;21.90;57.70;;;;;;5032995;28;20028;-74
2022/07/27 12:02:05;;;;;;;1.95;0.22;;;21.80;57.70;;;;;;5032895;28;20086;-75
2022/07/27 12:04:36;;;;;;;1.35;0.10;;;21.90;59.00;;;;;;5032628;28;20048;-75
2022/07/27 12:07:09;;;;;;;3.28;0.47;;;22.30;58.90;;;;;;5032754;28;20030;-75
2022/07/27 12:09:55;;;;;;;4.20;0.20;;;22.60;55.80;;;;;;5032562;28;20477;-74
2022/07/27 12:12:23;;;;;;;1.70;0.20;;;22.70;55.80;;;;;;5032406;28;20072;-75
2022/07/27 12:14:50;;;;;;;1.67;0.20;;;23.00;55.80;;;;;;5032417;28;20147;-75
2022/07/27 12:17:26;;;;;;;1.85;0.20;;;23.30;56.60;;;;;;5032297;28;20473;-75
2022/07/27 12:19:55;;;;;;;4.72;0.43;;;23.60;56.30;;;;;;5032837;28;20033;-75
2022/07/27 12:22:31;;;;;;;4.75;0.40;;;23.80;54.30;;;;;;5032779;28;20029;-75
2022/07/27 12:24:59;;;;;;;2.58;0.20;;;23.80;54.70;;;;;;5032810;28;20036;-75
2022/07/27 12:27:25;;;;;;;1.65;0.28;;;23.70;53.70;;;;;;5035674;28;20029;-75
2022/07/27 12:29:58;;;;;;;1.05;0.10;;;23.60;54.50;;;;;;5035827;28;20034;-76
2022/07/27 12:32:25;;;;;;;1.52;0.20;;;23.60;54.70;;;;;;5035722;28;20026;-75
2022/07/27 12:34:51;;;;;;;2.38;0.25;;;23.50;52.70;;;;;;5036348;28;20022;-75
2022/07/27 12:37:16;;;;;;;2.75;0.85;;;23.20;53.70;;;;;;5036105;28;20025;-75
2022/07/27 12:39:43;;;;;;;1.80;0.20;;;23.10;54.70;;;;;;5035775;28;20101;-75
2022/07/27 12:42:09;;;;;;;1.50;0.20;;;23.10;55.10;;;;;;5036009;28;20170;-75
2022/07/27 12:44:38;;;;;;;0.93;0.15;;;23.10;55.20;;;;;;5035978;28;20054;-75
2022/07/27 12:50:26;;;;;;;1.02;0.20;;;23.20;56.10;;;;;;5036361;28;20041;-75
2022/07/27 12:52:52;;;;;;;1.58;0.20;;;23.60;56.20;;;;;;5028895;28;20392;-76
2022/07/27 12:55:20;;;;;;;1.65;0.40;;;23.70;54.30;;;;;;5035629;28;20026;-76